Time;durP1;ratioP1;P1;durP2;ratioP2;P2;SDS_P1;SDS_P2;PMS_P1;PMS_P2;Temp;Humidity;BMP_temperature;BMP_pressure;BME280_temperature;BME280_humidity;BME280_pressure;Samples;Min_cycle;Max_cycle;Signal;HPM_P1;HPM_P2
2021/05/01 00:01:34;;;;;;;146.73;54.47;;;4.20;99.90;;;;;;5064701;28;20052;-74
2021/05/01 00:04:01;;;;;;;159.15;55.80;;;4.30;99.90;;;;;;5064373;28;20071;-74
2021/05/01 00:06:27;;;;;;;148.25;52.17;;;4.30;99.90;;;;;;5063171;28;20051;-74
2021/05/01 00:08:53;;;;;;;156.98;52.13;;;4.30;99.90;;;;;;5064988;28;20045;-74
2021/05/01 00:11:21;;;;;;;178.25;56.90;;;4.20;99.90;;;;;;5084159;28;20052;-74
2021/05/01 00:13:48;;;;;;;177.90;56.00;;;4.20;99.90;;;;;;5072139;28;20041;-74
2021/05/01 00:16:14;;;;;;;159.63;53.55;;;4.20;99.90;;;;;;5064299;28;20071;-74
2021/05/01 00:18:40;;;;;;;140.00;52.63;;;4.00;99.90;;;;;;5065207;28;20376;-74
2021/05/01 00:21:07;;;;;;;130.25;47.92;;;3.90;99.90;;;;;;5077746;28;20051;-74
2021/05/01 00:23:33;;;;;;;201.73;55.35;;;3.80;99.90;;;;;;5066656;28;20044;-74
2021/05/01 00:25:59;;;;;;;167.82;58.00;;;3.80;99.90;;;;;;5065051;28;20139;-74
2021/05/01 00:28:26;;;;;;;146.07;52.92;;;3.80;99.90;;;;;;5074502;28;20074;-74
2021/05/01 00:30:53;;;;;;;146.10;53.13;;;3.80;99.90;;;;;;5066739;28;20055;-75
2021/05/01 00:33:19;;;;;;;135.05;50.70;;;3.70;99.90;;;;;;5079327;28;20057;-74
2021/05/01 00:35:46;;;;;;;138.05;51.03;;;3.60;99.90;;;;;;5065969;28;20139;-74
2021/05/01 00:38:12;;;;;;;144.23;50.45;;;3.50;99.90;;;;;;5067440;28;20048;-74
2021/05/01 00:40:38;;;;;;;134.77;50.75;;;3.50;99.90;;;;;;5063951;28;20071;-74
2021/05/01 00:43:05;;;;;;;125.63;46.45;;;3.50;99.90;;;;;;5066899;28;20753;-74
2021/05/01 00:45:31;;;;;;;116.50;46.33;;;3.50;99.90;;;;;;5077618;27;20079;-74
2021/05/01 00:47:57;;;;;;;129.13;48.97;;;3.50;99.90;;;;;;5072329;28;20505;-74
2021/05/01 00:50:24;;;;;;;118.68;46.97;;;3.60;99.90;;;;;;5076582;28;20145;-74
2021/05/01 00:52:50;;;;;;;113.63;47.42;;;3.50;99.90;;;;;;5053033;28;20477;-74
2021/05/01 00:55:34;;;;;;;146.82;50.20;;;3.60;99.90;;;;;;5067508;28;20557;-74
2021/05/01 00:58:01;;;;;;;128.30;48.25;;;3.80;99.90;;;;;;5070083;28;20048;-74
2021/05/01 01:03:12;;;;;;;123.80;50.33;;;3.70;99.90;;;;;;5071194;28;20143;-74
2021/05/01 01:05:39;;;;;;;117.35;45.95;;;3.90;99.90;;;;;;5066571;28;20120;-74
2021/05/01 01:08:05;;;;;;;112.82;44.30;;;3.80;99.90;;;;;;5070228;28;20060;-74
2021/05/01 01:10:32;;;;;;;124.50;47.95;;;3.80;99.90;;;;;;5087095;28;20058;-74
2021/05/01 01:12:58;;;;;;;114.43;44.33;;;3.80;99.90;;;;;;5086727;28;20507;-74
2021/05/01 01:15:33;;;;;;;113.82;42.63;;;3.80;99.90;;;;;;5087106;27;20044;-74
2021/05/01 01:18:00;;;;;;;109.82;43.20;;;3.80;99.90;;;;;;5080356;28;20064;-74
2021/05/01 01:20:27;;;;;;;105.43;43.20;;;3.80;99.90;;;;;;5075928;28;20493;-74
2021/05/01 01:22:54;;;;;;;103.05;43.28;;;3.80;99.90;;;;;;5065686;28;20053;-74
2021/05/01 01:25:21;;;;;;;122.07;48.40;;;3.70;99.90;;;;;;5077783;28;20052;-74
2021/05/01 01:27:48;;;;;;;137.35;50.58;;;3.80;99.90;;;;;;5068741;28;20080;-74
2021/05/01 01:30:18;;;;;;;117.70;49.30;;;3.80;99.90;;;;;;5066729;28;20056;-74
2021/05/01 01:32:45;;;;;;;142.35;51.08;;;3.80;99.90;;;;;;5066275;28;20194;-74
2021/05/01 01:35:14;;;;;;;130.07;48.83;;;3.80;99.90;;;;;;5064120;28;20102;-73
2021/05/01 01:37:43;;;;;;;141.80;50.83;;;3.80;99.90;;;;;;5076157;28;20131;-74
2021/05/01 01:40:14;;;;;;;146.18;54.47;;;3.90;99.90;;;;;;5073628;28;20044;-74
2021/05/01 01:42:41;;;;;;;134.38;51.47;;;4.00;99.90;;;;;;5064744;28;20051;-74
2021/05/01 01:45:09;;;;;;;141.27;53.33;;;4.00;99.90;;;;;;5051515;28;20240;-74
2021/05/01 01:47:36;;;;;;;140.85;52.40;;;4.00;99.90;;;;;;5048095;28;20090;-73
2021/05/01 01:50:06;;;;;;;136.05;49.83;;;3.80;99.90;;;;;;5072259;28;20052;-74
2021/05/01 01:52:34;;;;;;;141.48;50.45;;;3.70;99.90;;;;;;5081061;28;20048;-74
2021/05/01 01:55:00;;;;;;;134.50;50.33;;;3.70;99.90;;;;;;5046155;28;20056;-74
2021/05/01 01:57:27;;;;;;;129.20;48.33;;;3.70;99.90;;;;;;5070212;28;20054;-74
2021/05/01 01:59:53;;;;;;;128.00;49.20;;;3.70;99.90;;;;;;5067508;28;20044;-74
2021/05/01 02:02:19;;;;;;;142.05;51.78;;;3.70;99.90;;;;;;5068462;28;20284;-74
2021/05/01 02:04:46;;;;;;;124.40;48.40;;;3.70;99.90;;;;;;5071929;28;20437;-74
2021/05/01 02:07:12;;;;;;;124.72;47.92;;;3.70;99.90;;;;;;5065021;28;20051;-74
2021/05/01 02:09:39;;;;;;;131.00;50.78;;;3.70;99.90;;;;;;5069321;28;20054;-74
2021/05/01 02:12:06;;;;;;;127.55;47.85;;;3.60;99.90;;;;;;5066666;28;20067;-74
2021/05/01 02:14:33;;;;;;;110.78;45.03;;;3.60;99.90;;;;;;5066553;28;20060;-73
2021/05/01 02:16:59;;;;;;;142.70;48.45;;;3.60;99.90;;;;;;5066441;28;20519;-73
2021/05/01 02:19:25;;;;;;;109.55;45.33;;;3.60;99.90;;;;;;5083507;28;20074;-73
2021/05/01 02:21:52;;;;;;;124.53;48.30;;;3.70;99.90;;;;;;5074605;28;20059;-73
2021/05/01 02:24:18;;;;;;;122.40;46.05;;;3.70;99.90;;;;;;5072680;28;20444;-75
2021/05/01 02:26:44;;;;;;;117.97;44.75;;;3.70;99.90;;;;;;5084702;28;20044;-75
2021/05/01 02:29:11;;;;;;;113.43;45.47;;;3.70;99.90;;;;;;5063429;28;20094;-75
2021/05/01 02:31:37;;;;;;;118.30;43.83;;;3.80;99.90;;;;;;5061420;28;20059;-75
2021/05/01 02:34:04;;;;;;;113.43;43.22;;;3.70;99.90;;;;;;5074936;28;20049;-73
2021/05/01 02:36:30;;;;;;;107.97;43.75;;;3.70;99.90;;;;;;5066866;28;20059;-75
2021/05/01 02:38:57;;;;;;;110.55;43.38;;;3.80;99.90;;;;;;5067743;28;20053;-75
2021/05/01 02:41:24;;;;;;;117.15;46.30;;;3.70;99.90;;;;;;5048095;28;20058;-72
2021/05/01 02:43:51;;;;;;;105.20;44.10;;;3.70;99.90;;;;;;5067639;28;20052;-73
2021/05/01 02:46:18;;;;;;;105.90;43.53;;;3.80;99.90;;;;;;5076880;28;20046;-73
2021/05/01 02:48:44;;;;;;;121.78;47.88;;;3.90;99.90;;;;;;5077297;28;20139;-72
2021/05/01 02:51:10;;;;;;;113.22;46.05;;;4.00;99.90;;;;;;5072107;28;20074;-72
2021/05/01 02:53:37;;;;;;;118.60;44.17;;;4.00;99.90;;;;;;5075112;28;20048;-74
2021/05/01 02:56:03;;;;;;;129.35;45.10;;;4.10;99.90;;;;;;5065871;28;20057;-73
2021/05/01 02:58:29;;;;;;;121.97;43.08;;;4.10;99.90;;;;;;5079706;28;20076;-73
2021/05/01 03:00:56;;;;;;;127.88;46.83;;;4.10;99.90;;;;;;5086861;28;20426;-73
2021/05/01 03:03:22;;;;;;;144.82;48.53;;;4.20;99.90;;;;;;5073346;28;20052;-73
2021/05/01 03:05:48;;;;;;;124.75;45.70;;;4.30;99.90;;;;;;5065984;28;20530;-73
2021/05/01 03:08:15;;;;;;;128.90;46.15;;;4.20;99.90;;;;;;5063197;28;20066;-73
2021/05/01 03:10:41;;;;;;;118.90;46.30;;;4.20;99.90;;;;;;5050496;28;20048;-74
2021/05/01 03:13:07;;;;;;;123.72;45.40;;;4.30;99.90;;;;;;5063153;28;20060;-73
2021/05/01 03:15:34;;;;;;;124.20;43.85;;;4.10;99.90;;;;;;5065572;28;20445;-74
2021/05/01 03:18:00;;;;;;;106.53;41.75;;;4.10;99.90;;;;;;5072199;28;20504;-73
2021/05/01 03:20:26;;;;;;;96.43;40.22;;;4.10;99.90;;;;;;5068359;28;20464;-73
2021/05/01 03:22:53;;;;;;;114.40;43.47;;;4.10;99.90;;;;;;5078971;28;20394;-73
2021/05/01 03:25:19;;;;;;;102.88;42.03;;;4.10;99.90;;;;;;5083464;27;20048;-73
2021/05/01 03:27:46;;;;;;;101.22;42.67;;;4.10;99.90;;;;;;5082556;28;20405;-73
2021/05/01 03:30:15;;;;;;;99.22;40.95;;;4.20;99.90;;;;;;5085415;28;20048;-73
2021/05/01 03:32:42;;;;;;;99.05;41.67;;;4.10;99.90;;;;;;5082411;28;20501;-73
2021/05/01 03:35:10;;;;;;;101.82;40.95;;;4.10;99.90;;;;;;5058265;28;20147;-74
2021/05/01 03:37:36;;;;;;;104.95;42.17;;;4.10;99.90;;;;;;5064205;28;20066;-74
2021/05/01 03:40:05;;;;;;;90.40;39.95;;;4.10;99.90;;;;;;5064970;28;20072;-74
2021/05/01 03:42:31;;;;;;;92.85;40.40;;;4.20;99.90;;;;;;5064861;28;20413;-74
2021/05/01 03:44:57;;;;;;;94.82;39.65;;;4.30;99.90;;;;;;5066656;28;20127;-74
2021/05/01 03:47:24;;;;;;;98.75;40.67;;;4.30;99.90;;;;;;5075189;27;20419;-73
2021/05/01 03:49:50;;;;;;;89.30;40.90;;;4.30;99.90;;;;;;5071157;28;20040;-74
2021/05/01 03:52:17;;;;;;;102.15;40.25;;;4.20;99.90;;;;;;5074804;28;20037;-74
2021/05/01 03:54:44;;;;;;;107.10;41.38;;;4.30;99.90;;;;;;5079404;28;20130;-74
2021/05/01 03:57:10;;;;;;;100.28;40.10;;;4.30;99.90;;;;;;5084777;27;20098;-73
2021/05/01 03:59:37;;;;;;;107.10;41.22;;;4.40;99.90;;;;;;5065495;28;20057;-73
2021/05/01 04:02:05;;;;;;;96.28;41.47;;;4.30;99.90;;;;;;5063977;28;20052;-74
2021/05/01 04:04:32;;;;;;;95.20;38.70;;;4.30;99.90;;;;;;5050270;28;20118;-74
2021/05/01 04:06:59;;;;;;;102.93;40.45;;;4.30;99.90;;;;;;5073022;28;20040;-74
2021/05/01 04:09:25;;;;;;;99.55;41.17;;;4.40;99.90;;;;;;5066114;28;20563;-73
2021/05/01 04:11:52;;;;;;;94.68;41.25;;;4.40;99.90;;;;;;5047392;28;20688;-74
2021/05/01 04:14:18;;;;;;;102.95;44.17;;;4.40;99.90;;;;;;5064323;28;20057;-74
2021/05/01 04:16:44;;;;;;;98.75;41.63;;;4.30;99.90;;;;;;5063390;28;20048;-74
2021/05/01 04:19:11;;;;;;;125.13;45.10;;;4.40;99.90;;;;;;5077937;28;20059;-74
2021/05/01 04:21:37;;;;;;;130.48;47.67;;;4.60;99.90;;;;;;5057904;28;20054;-73
2021/05/01 04:24:05;;;;;;;130.98;47.72;;;4.60;99.90;;;;;;5068556;28;20270;-73
2021/05/01 04:26:32;;;;;;;139.13;49.33;;;4.60;99.90;;;;;;5063894;28;20055;-74
2021/05/01 04:28:59;;;;;;;129.90;46.95;;;4.60;99.90;;;;;;5075571;28;20056;-73
2021/05/01 04:31:26;;;;;;;137.73;47.97;;;4.60;99.90;;;;;;5087140;28;20044;-74
2021/05/01 04:33:53;;;;;;;140.25;49.63;;;4.50;99.90;;;;;;5077520;28;20044;-74
2021/05/01 04:36:19;;;;;;;136.38;51.30;;;4.50;99.90;;;;;;5065412;28;20044;-74
2021/05/01 04:38:46;;;;;;;132.13;48.03;;;4.60;99.90;;;;;;5077290;28;20079;-73
2021/05/01 04:41:12;;;;;;;110.65;46.20;;;4.60;99.90;;;;;;5066228;28;20048;-74
2021/05/01 04:43:40;;;;;;;110.72;43.03;;;4.60;99.90;;;;;;5072341;28;20113;-74
2021/05/01 04:46:07;;;;;;;109.95;42.65;;;4.60;99.90;;;;;;5067068;28;20139;-74
2021/05/01 04:48:33;;;;;;;100.32;44.20;;;4.60;99.90;;;;;;5067493;28;20075;-74
2021/05/01 04:50:59;;;;;;;108.95;41.92;;;4.60;99.90;;;;;;5079949;28;20561;-73
2021/05/01 04:53:26;;;;;;;112.75;45.33;;;4.70;99.90;;;;;;5060884;28;20307;-74
2021/05/01 04:55:52;;;;;;;112.90;45.20;;;4.70;99.90;;;;;;5069188;28;20048;-74
2021/05/01 04:58:22;;;;;;;120.10;47.00;;;4.70;99.90;;;;;;5072093;28;20052;-74
2021/05/01 05:00:49;;;;;;;112.22;46.45;;;4.80;99.90;;;;;;5068240;28;20076;-74
2021/05/01 05:03:15;;;;;;;135.55;50.17;;;4.80;99.90;;;;;;5052267;28;20066;-74
2021/05/01 05:05:41;;;;;;;123.40;50.28;;;4.80;99.90;;;;;;5068960;28;20329;-74
2021/05/01 05:08:08;;;;;;;118.07;46.55;;;4.80;99.90;;;;;;5067843;28;20377;-74
2021/05/01 05:10:34;;;;;;;100.43;44.10;;;4.90;99.90;;;;;;5065891;28;20214;-74
2021/05/01 05:13:00;;;;;;;95.95;42.28;;;4.90;99.90;;;;;;5068401;28;20053;-74
2021/05/01 05:15:26;;;;;;;102.85;43.70;;;5.00;99.90;;;;;;5087016;27;20056;-74
2021/05/01 05:17:53;;;;;;;108.35;47.92;;;5.10;99.90;;;;;;5087012;28;20080;-74
2021/05/01 05:20:20;;;;;;;126.15;52.20;;;5.20;99.90;;;;;;5076674;28;20618;-74
2021/05/01 05:22:47;;;;;;;117.97;50.67;;;5.30;99.90;;;;;;5070669;28;20139;-74
2021/05/01 05:25:13;;;;;;;118.55;50.10;;;5.40;99.90;;;;;;5066009;27;20110;-73
2021/05/01 05:27:39;;;;;;;114.47;50.67;;;5.60;99.90;;;;;;5065882;28;20054;-73
2021/05/01 05:30:06;;;;;;;116.72;49.28;;;5.60;99.90;;;;;;5048186;28;20056;-73
2021/05/01 05:32:33;;;;;;;116.20;53.38;;;5.80;99.90;;;;;;5067274;28;20056;-73
2021/05/01 05:34:59;;;;;;;110.50;54.67;;;5.90;99.90;;;;;;5045303;28;20143;-73
2021/05/01 05:37:25;;;;;;;110.60;51.03;;;6.00;99.90;;;;;;5061775;28;20053;-73
2021/05/01 05:39:53;;;;;;;97.47;50.67;;;6.20;99.90;;;;;;5065299;28;20041;-73
2021/05/01 05:42:20;;;;;;;104.97;51.05;;;6.30;99.90;;;;;;5060171;28;20040;-73
2021/05/01 05:44:49;;;;;;;109.68;52.15;;;6.40;99.90;;;;;;5068320;28;20190;-73
2021/05/01 05:47:19;;;;;;;113.93;55.65;;;6.50;99.90;;;;;;5072596;28;20052;-73
2021/05/01 05:49:46;;;;;;;119.57;56.30;;;6.60;99.90;;;;;;5069603;28;20056;-73
2021/05/01 05:52:13;;;;;;;116.90;54.85;;;6.60;99.90;;;;;;5065069;28;20516;-74
2021/05/01 05:54:40;;;;;;;130.57;62.13;;;6.70;99.90;;;;;;5046310;28;20485;-73
2021/05/01 05:57:10;;;;;;;138.48;63.15;;;6.70;99.90;;;;;;5053015;28;20118;-74
2021/05/01 05:59:39;;;;;;;149.68;67.38;;;6.70;99.90;;;;;;5063530;28;20135;-74
2021/05/01 06:02:08;;;;;;;158.15;73.15;;;6.70;99.90;;;;;;5065601;28;20057;-74
2021/05/01 06:04:41;;;;;;;174.18;78.65;;;6.70;99.90;;;;;;5065261;28;20056;-73
2021/05/01 06:07:16;;;;;;;180.90;81.25;;;6.70;99.90;;;;;;5064955;28;20534;-74
2021/05/01 06:09:43;;;;;;;185.25;82.35;;;6.80;99.90;;;;;;5068751;28;20052;-73
2021/05/01 06:12:11;;;;;;;205.48;83.90;;;6.70;99.90;;;;;;5070182;28;20067;-74
2021/05/01 06:14:42;;;;;;;200.57;82.97;;;6.70;99.90;;;;;;5066858;28;20340;-73
2021/05/01 06:17:11;;;;;;;194.15;85.50;;;6.60;99.90;;;;;;5066356;28;20501;-74
2021/05/01 06:19:40;;;;;;;214.88;84.82;;;6.70;99.90;;;;;;5064743;28;20061;-73
2021/05/01 06:22:07;;;;;;;204.70;89.07;;;6.70;99.90;;;;;;5066977;28;20056;-73
2021/05/01 06:24:33;;;;;;;196.85;84.20;;;6.80;99.90;;;;;;5067060;28;20091;-74
2021/05/01 06:27:01;;;;;;;210.32;85.63;;;6.80;99.90;;;;;;5048001;28;20171;-74
2021/05/01 06:29:30;;;;;;;203.85;86.10;;;6.80;99.90;;;;;;5065962;28;20052;-73
2021/05/01 06:31:58;;;;;;;199.00;84.72;;;6.80;99.90;;;;;;5080706;28;20152;-73
2021/05/01 06:34:24;;;;;;;199.93;84.60;;;6.80;99.90;;;;;;5073758;28;20055;-74
2021/05/01 06:36:52;;;;;;;195.05;83.20;;;6.80;99.90;;;;;;5066574;28;20048;-74
2021/05/01 06:39:19;;;;;;;210.43;87.30;;;6.80;99.90;;;;;;5066930;28;20052;-73
2021/05/01 06:41:55;;;;;;;211.73;86.32;;;6.80;99.90;;;;;;5067152;28;20080;-74
2021/05/01 06:44:42;;;;;;;203.38;86.85;;;6.80;99.90;;;;;;5068363;28;20512;-74
2021/05/01 06:47:11;;;;;;;199.20;84.80;;;6.90;99.90;;;;;;5056897;28;20045;-74
2021/05/01 06:49:48;;;;;;;209.70;87.05;;;6.90;99.90;;;;;;5067952;28;20633;-74
2021/05/01 06:52:16;;;;;;;181.55;76.18;;;6.90;99.90;;;;;;5065761;28;20122;-74
2021/05/01 06:54:50;;;;;;;186.45;78.95;;;6.90;99.90;;;;;;5064280;28;20123;-74
2021/05/01 06:57:25;;;;;;;165.18;75.10;;;6.90;99.90;;;;;;5063041;28;20568;-74
2021/05/01 06:59:54;;;;;;;141.80;64.53;;;6.80;99.90;;;;;;5049421;28;20051;-73
2021/05/01 07:02:34;;;;;;;129.25;63.92;;;6.80;99.90;;;;;;5062965;28;20040;-74
2021/05/01 07:05:01;;;;;;;109.97;59.33;;;6.90;99.90;;;;;;5066477;28;20056;-73
2021/05/01 07:07:30;;;;;;;101.00;53.33;;;6.90;99.90;;;;;;5066581;28;20059;-74
2021/05/01 07:09:56;;;;;;;116.28;58.28;;;7.00;99.90;;;;;;5064592;28;20071;-73
2021/05/01 07:12:24;;;;;;;112.82;59.05;;;7.20;99.90;;;;;;5065837;28;20055;-73
2021/05/01 07:14:51;;;;;;;115.68;57.95;;;7.20;99.90;;;;;;5079944;28;20055;-73
2021/05/01 07:17:18;;;;;;;117.32;59.33;;;7.30;99.90;;;;;;5085024;28;20048;-74
2021/05/01 07:19:45;;;;;;;117.90;58.50;;;7.30;99.90;;;;;;5076411;28;20117;-74
2021/05/01 07:22:12;;;;;;;117.50;59.53;;;7.40;99.90;;;;;;5080905;28;20058;-74
2021/05/01 07:24:38;;;;;;;126.38;61.72;;;7.40;99.90;;;;;;5070465;28;20075;-75
2021/05/01 07:27:05;;;;;;;122.13;59.97;;;7.50;99.90;;;;;;5060300;28;20048;-74
2021/05/01 07:29:37;;;;;;;124.78;62.85;;;7.60;99.90;;;;;;5074067;28;20352;-74
2021/05/01 07:32:04;;;;;;;117.18;57.95;;;7.60;99.90;;;;;;5063209;28;20528;-76
2021/05/01 07:34:32;;;;;;;118.03;57.85;;;7.60;99.90;;;;;;5060615;28;20044;-74
2021/05/01 07:37:05;;;;;;;131.95;61.35;;;7.40;99.90;;;;;;5057728;28;20048;-74
2021/05/01 07:39:33;;;;;;;139.15;65.45;;;7.50;99.90;;;;;;5054172;28;20148;-74
2021/05/01 07:42:02;;;;;;;144.05;65.22;;;7.40;99.90;;;;;;5060759;28;20044;-74
2021/05/01 07:44:31;;;;;;;157.85;74.82;;;7.40;99.90;;;;;;5068565;28;20075;-74
2021/05/01 07:47:02;;;;;;;176.20;75.10;;;7.30;99.90;;;;;;5063491;28;20056;-74
2021/05/01 07:49:30;;;;;;;180.90;80.68;;;7.20;99.90;;;;;;5065584;28;20519;-73
2021/05/01 07:51:59;;;;;;;194.82;86.53;;;7.00;99.90;;;;;;5062198;28;20093;-73
2021/05/01 07:54:26;;;;;;;212.60;82.57;;;6.90;99.90;;;;;;5065837;28;20393;-73
2021/05/01 07:56:52;;;;;;;190.18;81.38;;;6.90;99.90;;;;;;5033562;28;20044;-73
2021/05/01 07:59:18;;;;;;;202.63;83.93;;;7.00;99.90;;;;;;5051378;28;20055;-73
2021/05/01 08:01:45;;;;;;;203.45;82.97;;;7.00;99.90;;;;;;5068184;28;20048;-73
2021/05/01 08:04:11;;;;;;;185.55;78.78;;;7.00;99.90;;;;;;5063012;28;20056;-73
2021/05/01 08:06:38;;;;;;;172.95;73.68;;;7.00;99.90;;;;;;5068066;28;20251;-73
2021/05/01 08:09:05;;;;;;;157.50;72.20;;;7.10;99.90;;;;;;5068836;28;20063;-73
2021/05/01 08:11:32;;;;;;;148.23;69.03;;;7.10;99.90;;;;;;5066910;28;20048;-73
2021/05/01 08:13:59;;;;;;;153.85;70.30;;;7.00;99.90;;;;;;5065176;28;20049;-74
2021/05/01 08:16:25;;;;;;;135.25;64.22;;;7.10;99.90;;;;;;5060423;28;20411;-74
2021/05/01 08:18:52;;;;;;;119.60;60.00;;;7.10;99.90;;;;;;5067610;28;20063;-73
2021/05/01 08:21:19;;;;;;;119.68;58.40;;;7.30;99.90;;;;;;5074131;28;20505;-73
2021/05/01 08:23:45;;;;;;;103.53;52.05;;;7.30;99.90;;;;;;5063065;28;20102;-74
2021/05/01 08:26:11;;;;;;;89.30;46.80;;;7.30;99.90;;;;;;5078004;28;20063;-74
2021/05/01 08:28:38;;;;;;;87.35;47.08;;;7.20;99.90;;;;;;5055484;28;20429;-73
2021/05/01 08:31:04;;;;;;;80.55;46.22;;;7.30;99.90;;;;;;5049014;28;20102;-75
2021/05/01 08:33:32;;;;;;;87.32;46.75;;;7.30;99.90;;;;;;5067011;28;20489;-74
2021/05/01 08:35:59;;;;;;;87.30;48.00;;;7.50;99.90;;;;;;5063873;28;20171;-74
2021/05/01 08:38:25;;;;;;;71.03;41.40;;;7.60;99.90;;;;;;5068733;28;20071;-74
2021/05/01 08:40:52;;;;;;;73.85;40.30;;;7.70;99.90;;;;;;5066233;28;20072;-74
2021/05/01 08:43:18;;;;;;;83.75;45.80;;;7.70;99.90;;;;;;5069221;28;20057;-74
2021/05/01 08:45:47;;;;;;;82.47;44.28;;;7.80;99.90;;;;;;5068537;27;20135;-74
2021/05/01 08:48:15;;;;;;;90.30;48.83;;;7.90;99.90;;;;;;5070886;28;20266;-75
2021/05/01 08:50:46;;;;;;;91.72;49.13;;;8.00;99.90;;;;;;5067000;28;20121;-74
2021/05/01 08:53:13;;;;;;;97.90;52.28;;;8.10;99.90;;;;;;5068745;28;20044;-74
2021/05/01 08:55:40;;;;;;;92.63;50.95;;;8.10;99.90;;;;;;5063916;28;20059;-74
2021/05/01 08:58:09;;;;;;;95.43;51.60;;;8.00;99.90;;;;;;5069021;28;20062;-74
2021/05/01 09:00:41;;;;;;;91.40;51.00;;;8.10;99.90;;;;;;5053346;28;20127;-74
2021/05/01 09:03:09;;;;;;;93.50;49.10;;;8.20;99.90;;;;;;5080773;28;20294;-73
2021/05/01 09:05:37;;;;;;;100.57;53.78;;;8.30;99.90;;;;;;5066902;28;20055;-73
2021/05/01 09:08:06;;;;;;;87.30;50.67;;;8.60;99.90;;;;;;5076398;28;20052;-74
2021/05/01 09:10:41;;;;;;;91.90;50.60;;;8.70;99.90;;;;;;5085858;28;20054;-73
2021/05/01 09:13:13;;;;;;;99.95;57.67;;;8.90;99.90;;;;;;5066474;28;20526;-73
2021/05/01 09:15:41;;;;;;;105.05;55.00;;;8.70;99.90;;;;;;5067667;28;20110;-73
2021/05/01 09:18:08;;;;;;;108.28;59.60;;;8.70;99.90;;;;;;5063647;28;20039;-73
2021/05/01 09:20:35;;;;;;;101.57;55.63;;;8.60;99.90;;;;;;5078358;28;20126;-73
2021/05/01 09:23:04;;;;;;;106.78;59.22;;;8.40;99.90;;;;;;5067707;28;20440;-74
2021/05/01 09:26:02;;;;;;;99.28;54.45;;;8.40;99.90;;;;;;5065769;28;20084;-74
2021/05/01 09:28:45;;;;;;;101.07;56.33;;;8.50;99.90;;;;;;5068808;28;20416;-73
2021/05/01 09:31:14;;;;;;;89.18;52.55;;;8.80;99.90;;;;;;5066439;28;20064;-74
2021/05/01 09:33:43;;;;;;;88.65;52.80;;;8.80;99.90;;;;;;5056789;28;20041;-73
2021/05/01 09:36:23;;;;;;;94.15;53.65;;;8.70;99.90;;;;;;5065524;28;20244;-74
2021/05/01 09:38:51;;;;;;;84.78;50.25;;;8.70;99.90;;;;;;5069504;28;20050;-74
2021/05/01 09:41:32;;;;;;;90.75;52.33;;;8.80;99.90;;;;;;5061051;28;20048;-73
2021/05/01 09:44:05;;;;;;;85.65;51.15;;;8.90;99.90;;;;;;5066647;28;20091;-73
2021/05/01 09:46:37;;;;;;;90.82;54.10;;;8.90;99.90;;;;;;5055474;28;20040;-73
2021/05/01 09:49:15;;;;;;;86.35;52.70;;;9.10;99.90;;;;;;5049308;28;20442;-73
2021/05/01 09:52:02;;;;;;;82.13;50.65;;;9.30;99.90;;;;;;5034035;28;20052;-74
2021/05/01 09:54:31;;;;;;;96.20;55.17;;;9.60;99.90;;;;;;5049002;28;20053;-74
2021/05/01 09:57:06;;;;;;;90.60;54.90;;;9.80;99.90;;;;;;5026264;28;20055;-75
2021/05/01 09:59:38;;;;;;;86.50;54.08;;;10.00;99.90;;;;;;5045932;28;20252;-72
2021/05/01 10:02:05;;;;;;;91.35;54.20;;;10.20;99.90;;;;;;5062807;28;20544;-74
2021/05/01 10:04:32;;;;;;;88.63;56.08;;;10.10;99.90;;;;;;5084446;28;20815;-74
2021/05/01 10:07:20;;;;;;;88.45;54.28;;;9.90;99.90;;;;;;5084420;28;20052;-74
2021/05/01 10:09:55;;;;;;;91.18;54.53;;;9.70;99.90;;;;;;5087259;28;20151;-74
2021/05/01 10:12:22;;;;;;;92.85;55.33;;;9.70;99.90;;;;;;5067894;28;20394;-75
2021/05/01 10:14:49;;;;;;;87.28;53.92;;;9.70;99.90;;;;;;5061389;28;20509;-73
2021/05/01 10:17:23;;;;;;;90.55;53.67;;;9.70;99.90;;;;;;5066403;28;20099;-73
2021/05/01 10:20:03;;;;;;;88.22;54.85;;;10.00;99.90;;;;;;5074555;28;20500;-73
2021/05/01 10:22:32;;;;;;;85.18;53.38;;;10.50;99.90;;;;;;5067350;28;20047;-75
2021/05/01 10:25:02;;;;;;;82.45;52.92;;;10.70;99.90;;;;;;5065300;28;20179;-74
2021/05/01 10:27:39;;;;;;;91.15;57.30;;;10.60;99.90;;;;;;5066189;28;20140;-73
2021/05/01 10:30:28;;;;;;;84.38;52.53;;;10.70;99.90;;;;;;5082994;28;20156;-73
2021/05/01 10:33:18;;;;;;;87.30;52.50;;;10.90;99.90;;;;;;5065120;28;20052;-75
2021/05/01 10:36:05;;;;;;;93.10;56.72;;;10.80;99.90;;;;;;5052354;28;20305;-73
2021/05/01 10:38:33;;;;;;;88.82;55.20;;;10.70;99.90;;;;;;5064395;28;20032;-73
2021/05/01 10:41:01;;;;;;;82.25;51.78;;;10.80;99.90;;;;;;5069499;28;20048;-73
2021/05/01 10:43:32;;;;;;;91.68;54.42;;;11.00;99.90;;;;;;5062984;28;20157;-73
2021/05/01 10:46:08;;;;;;;79.00;50.95;;;11.30;99.90;;;;;;5062466;28;20897;-73
2021/05/01 10:48:47;;;;;;;91.88;54.90;;;11.10;99.90;;;;;;5063304;28;20135;-74
2021/05/01 10:51:20;;;;;;;81.20;50.45;;;11.20;99.90;;;;;;5055235;28;20051;-74
2021/05/01 10:53:48;;;;;;;79.95;50.38;;;11.40;99.90;;;;;;5064091;28;20052;-75
2021/05/01 10:56:25;;;;;;;75.78;49.00;;;11.20;99.90;;;;;;5067069;28;20043;-72
2021/05/01 10:58:52;;;;;;;80.20;51.95;;;11.20;99.90;;;;;;5031880;28;20067;-74
2021/05/01 11:01:29;;;;;;;80.45;51.83;;;10.70;99.90;;;;;;5060849;28;20501;-73
2021/05/01 11:04:01;;;;;;;80.13;50.88;;;10.50;99.90;;;;;;5064857;28;20055;-73
2021/05/01 11:06:29;;;;;;;89.95;56.00;;;10.20;99.90;;;;;;5064209;28;20101;-73
2021/05/01 11:09:04;;;;;;;82.47;52.60;;;10.10;99.90;;;;;;5046870;28;20063;-73
2021/05/01 11:11:38;;;;;;;;;;;10.10;99.90;;;;;;5066092;28;20051;-73
2021/05/01 11:14:16;;;;;;;85.32;50.78;;;10.10;99.90;;;;;;5065613;28;19954;-73
2021/05/01 11:16:51;;;;;;;79.93;50.78;;;10.10;99.90;;;;;;5064535;28;20058;-73
2021/05/01 11:19:21;;;;;;;79.85;49.88;;;10.20;99.90;;;;;;5047859;28;20069;-73
2021/05/01 11:21:48;;;;;;;78.50;48.50;;;10.50;99.90;;;;;;5065469;28;20148;-74
2021/05/01 11:24:15;;;;;;;79.32;49.65;;;10.90;99.90;;;;;;5029687;28;20147;-73
2021/05/01 11:26:43;;;;;;;73.95;49.10;;;11.30;99.90;;;;;;5049825;28;20048;-73
2021/05/01 11:29:11;;;;;;;80.18;54.25;;;11.70;99.90;;;;;;5030786;28;20136;-73
2021/05/01 11:31:41;;;;;;;76.45;52.15;;;11.90;99.90;;;;;;5073642;28;20147;-73
2021/05/01 11:34:11;;;;;;;75.47;49.78;;;12.10;99.90;;;;;;5051552;28;20827;-73
2021/05/01 11:36:47;;;;;;;75.43;50.90;;;11.80;99.90;;;;;;5049892;28;20139;-73
2021/05/01 11:39:15;;;;;;;76.63;49.80;;;11.70;99.90;;;;;;5050235;28;20054;-74
2021/05/01 11:41:43;;;;;;;77.05;52.08;;;11.70;99.90;;;;;;5058030;28;21205;-73
2021/05/01 11:44:11;;;;;;;79.38;51.45;;;11.40;99.90;;;;;;5048450;28;20052;-73
2021/05/01 11:46:45;;;;;;;81.68;52.80;;;11.00;99.90;;;;;;5063964;28;20363;-73
2021/05/01 11:49:12;;;;;;;70.57;48.15;;;11.20;99.90;;;;;;5064145;28;20059;-73
2021/05/01 11:52:01;;;;;;;73.13;50.08;;;11.30;99.90;;;;;;5063330;28;20052;-73
2021/05/01 11:54:51;;;;;;;77.28;48.78;;;11.30;99.90;;;;;;5062425;28;20056;-73
2021/05/01 11:57:27;;;;;;;72.40;50.72;;;11.40;99.90;;;;;;5047081;28;20068;-74
2021/05/01 11:59:53;;;;;;;70.95;48.45;;;11.90;99.90;;;;;;5046643;28;20056;-73
2021/05/01 12:02:35;;;;;;;70.28;49.60;;;12.20;99.90;;;;;;5049366;28;20408;-73
2021/05/01 12:05:08;;;;;;;73.10;50.30;;;12.00;99.90;;;;;;5066405;28;20048;-74
2021/05/01 12:07:38;;;;;;;69.97;50.63;;;12.10;99.90;;;;;;5064377;28;20052;-73
2021/05/01 12:10:10;;;;;;;71.43;50.67;;;12.30;99.90;;;;;;5030324;28;20084;-74
2021/05/01 12:12:47;;;;;;;73.05;51.20;;;12.70;99.90;;;;;;5041176;28;20165;-73
2021/05/01 12:15:15;;;;;;;71.22;50.15;;;12.70;99.90;;;;;;5062996;28;20524;-73
2021/05/01 12:17:52;;;;;;;70.47;49.28;;;12.50;99.90;;;;;;5063931;28;20288;-73
2021/05/01 12:20:22;;;;;;;69.45;49.42;;;12.30;99.90;;;;;;5026220;28;20052;-73
2021/05/01 12:22:54;;;;;;;68.23;44.70;;;12.20;99.90;;;;;;5043925;28;20345;-73
2021/05/01 12:25:33;;;;;;;64.45;48.20;;;12.10;99.90;;;;;;5042293;28;20044;-74
2021/05/01 12:28:00;;;;;;;76.18;49.13;;;12.00;99.90;;;;;;5050999;28;20083;-73
2021/05/01 12:30:43;;;;;;;66.20;47.58;;;12.30;99.90;;;;;;5083745;28;20123;-74
2021/05/01 12:33:29;;;;;;;68.82;48.20;;;12.60;99.90;;;;;;5067424;28;20048;-74
2021/05/01 12:36:10;;;;;;;63.22;46.30;;;12.70;99.90;;;;;;5067134;28;20418;-73
2021/05/01 12:38:38;;;;;;;68.63;48.00;;;12.70;99.90;;;;;;5086928;28;20130;-74
2021/05/01 12:41:10;;;;;;;64.80;46.22;;;12.80;99.90;;;;;;5087189;28;20147;-75